Time;durP1;ratioP1;P1;durP2;ratioP2;P2;SDS_P1;SDS_P2;PMS_P1;PMS_P2;Temp;Humidity;BMP_temperature;BMP_pressure;BME280_temperature;BME280_humidity;BME280_pressure;Samples;Min_cycle;Max_cycle;Signal;HPM_P1;HPM_P2
2023/02/15 00:01:59;;;;;;;62.50;30.80;;;;;;;0.93;100.00;102499.12;4857120;58;1141167;-68
2023/02/15 00:07:04;;;;;;;71.82;31.87;;;;;;;0.96;100.00;102493.91;4902582;57;1140892;-70
2023/02/15 00:12:11;;;;;;;64.30;30.83;;;;;;;0.96;100.00;102499.12;4936084;57;1140877;-69
2023/02/15 00:17:17;;;;;;;58.93;29.50;;;;;;;0.86;100.00;102487.03;4935948;57;1140893;-68
2023/02/15 00:22:22;;;;;;;57.10;27.37;;;;;;;0.87;100.00;102489.20;4954718;56;1140863;-68
2023/02/15 00:27:28;;;;;;;76.30;30.37;;;;;;;0.82;100.00;102484.02;4934666;57;1205763;-67
2023/02/15 00:32:34;;;;;;;81.73;29.37;;;;;;;0.80;100.00;102482.28;4935474;56;1140877;-68
2023/02/15 00:37:40;;;;;;;65.83;25.20;;;;;;;0.79;100.00;102474.05;4912687;57;1140992;-68
2023/02/15 00:42:46;;;;;;;45.93;24.57;;;;;;;0.81;100.00;102481.41;4904693;57;1140958;-68
2023/02/15 00:47:53;;;;;;;42.33;21.53;;;;;;;0.69;100.00;102471.50;4901003;57;1141178;-70
2023/02/15 00:52:58;;;;;;;47.43;24.00;;;;;;;0.62;100.00;102462.41;4930124;58;1237857;-69
2023/02/15 00:58:05;;;;;;;54.30;25.40;;;;;;;0.63;100.00;102457.64;4970923;58;1141000;-68
2023/02/15 01:03:12;;;;;;;50.13;24.60;;;;;;;0.64;100.00;102461.54;4951314;58;1140927;-69
2023/02/15 01:08:18;;;;;;;40.70;19.90;;;;;;;0.64;100.00;102460.67;4958938;58;1141003;-68
2023/02/15 01:13:24;;;;;;;57.13;26.23;;;;;;;0.51;100.00;102460.31;4983931;58;1140854;-70
2023/02/15 01:18:32;;;;;;;78.93;38.20;;;;;;;0.33;100.00;102453.45;4964614;58;1140938;-68
2023/02/15 01:23:38;;;;;;;61.40;31.07;;;;;;;0.21;100.00;102448.31;4964737;58;1140787;-69
2023/02/15 01:28:45;;;;;;;53.87;25.67;;;;;;;0.17;100.00;102447.88;4984063;58;1140839;-71
2023/02/15 01:33:51;;;;;;;82.83;32.70;;;;;;;0.15;100.00;102447.92;4959201;58;1140853;-69
2023/02/15 01:38:58;;;;;;;113.77;39.70;;;;;;;0.10;100.00;102443.16;4938447;57;1140906;-68
2023/02/15 01:44:24;;;;;;;90.97;34.90;;;;;;;0.13;100.00;102441.85;4932111;57;1143007;-68
2023/02/15 01:49:30;;;;;;;105.83;36.13;;;;;;;0.19;100.00;102433.14;4960279;57;1140753;-68
2023/02/15 01:54:40;;;;;;;79.10;27.53;;;;;;;0.15;100.00;102435.34;4977228;57;1143046;-70
2023/02/15 01:59:51;;;;;;;81.67;29.67;;;;;;;0.15;100.00;102435.34;4866983;57;1141039;-67
2023/02/15 02:05:08;;;;;;;74.97;30.03;;;;;;;0.07;100.00;102424.09;4896021;57;1140923;-70
2023/02/15 02:10:18;;;;;;;81.78;27.98;;;;;;;0.09;100.00;102430.16;4782780;58;1141069;-70
2023/02/15 02:15:53;;;;;;;63.30;24.83;;;;;;;0.06;100.00;102418.45;4953567;56;1140915;-68
2023/02/15 02:21:18;;;;;;;61.53;25.70;;;;;;;0.08;100.00;102410.20;4914213;58;1141016;-69
2023/02/15 02:27:04;;;;;;;58.37;22.77;;;;;;;0.07;100.00;102412.38;4934448;56;1140900;-71
2023/02/15 02:32:21;;;;;;;45.50;22.47;;;;;;;0.00;100.00;102414.16;4934125;57;1140826;-70
2023/02/15 02:37:37;;;;;;;45.17;20.70;;;;;;;-0.04;100.00;102401.59;4925768;57;1140912;-71
2023/02/15 02:42:53;;;;;;;49.23;22.55;;;;;;;-0.04;100.00;102405.49;4952050;57;1143132;-70
2023/02/15 02:48:06;;;;;;;45.25;20.35;;;;;;;-0.06;100.00;102399.42;4937865;57;1143092;-70
2023/02/15 02:53:13;;;;;;;35.70;19.47;;;;;;;-0.09;100.00;102394.67;5008891;56;1143030;-70
2023/02/15 02:58:47;;;;;;;42.57;21.27;;;;;;;-0.23;100.00;102390.81;5015723;56;1142937;-70
2023/02/15 03:04:01;;;;;;;40.73;20.40;;;;;;;-0.33;100.00;102394.33;4995687;57;1143132;-71
2023/02/15 03:09:17;;;;;;;35.58;18.62;;;;;;;-0.49;100.00;102389.59;4972466;57;1143199;-68
2023/02/15 03:14:23;;;;;;;37.30;19.47;;;;;;;-0.50;100.00;102383.09;4979965;58;1143186;-67
2023/02/15 03:19:32;;;;;;;78.77;28.47;;;;;;;-0.55;100.00;102369.23;4963565;58;1142942;-70
2023/02/15 03:24:45;;;;;;;64.07;23.17;;;;;;;-0.66;100.00;102368.41;4963364;57;1143212;-67
2023/02/15 03:29:56;;;;;;;44.90;24.10;;;;;;;-0.73;100.00;102361.04;4983562;58;1142947;-70
2023/02/15 03:35:02;;;;;;;40.47;20.13;;;;;;;-0.73;100.00;102362.34;4954531;57;1142932;-70
2023/02/15 03:46:09;;;;;;;35.83;20.10;;;;;;;-0.85;100.00;102358.03;4884203;57;1142873;-71
2023/02/15 03:51:33;;;;;;;39.20;19.32;;;;;;;-0.83;100.00;102345.05;4964298;58;1143077;-68
2023/02/15 04:01:56;;;;;;;37.40;18.90;;;;;;;-0.85;100.00;102341.15;4950844;58;1143036;-67
2023/02/15 04:02:11;;;;;;;37.30;18.93;;;;;;;-0.97;100.00;102335.11;4946275;58;1142973;-68
2023/02/15 04:07:17;;;;;;;34.13;18.47;;;;;;;-0.96;100.00;102340.30;4969783;58;1142878;-69
2023/02/15 04:12:23;;;;;;;37.13;18.62;;;;;;;-0.93;100.00;102340.74;4963895;58;1142926;-67
2023/02/15 04:17:29;;;;;;;48.07;19.63;;;;;;;-0.88;100.00;102333.36;4963963;58;1143057;-68
2023/02/15 04:27:57;;;;;;;;;;;;;;;-0.95;100.00;102335.98;4987023;58;1142956;-69
2023/02/15 04:33:03;;;;;;;36.43;18.67;;;;;;;-0.97;100.00;102324.72;4979787;58;976134;-70
2023/02/15 04:38:09;;;;;;;40.20;21.05;;;;;;;-0.94;100.00;102317.80;4836602;58;1140970;-68
2023/02/15 04:43:15;;;;;;;43.87;19.77;;;;;;;-0.85;100.00;102313.88;4903784;57;1143023;-71
2023/02/15 04:48:22;;;;;;;47.07;21.93;;;;;;;-0.78;100.00;102310.84;4911477;57;1142970;-67
2023/02/15 04:53:29;;;;;;;42.57;21.30;;;;;;;-0.82;100.00;102315.17;4964579;57;1142948;-69
2023/02/15 04:58:36;;;;;;;41.43;19.70;;;;;;;-0.85;100.00;102309.98;4964518;57;1143101;-71
2023/02/15 05:03:43;;;;;;;54.50;24.40;;;;;;;-0.92;100.00;102317.38;4984137;58;1142921;-70
2023/02/15 05:08:48;;;;;;;44.43;24.40;;;;;;;-0.98;100.00;102317.37;4963911;57;1143193;-70
2023/02/15 05:13:54;;;;;;;54.23;28.03;;;;;;;-1.06;100.00;102322.98;4964376;58;1143023;-70
2023/02/15 05:19:00;;;;;;;67.80;32.30;;;;;;;-1.15;100.00;102314.78;4983808;57;1142969;-70
2023/02/15 05:29:31;;;;;;;55.83;27.40;;;;;;;-0.97;100.00;102315.63;4964066;58;1142998;-69
2023/02/15 05:34:36;;;;;;;52.13;24.47;;;;;;;-0.92;100.00;102312.61;4962347;57;1143102;-70
2023/02/15 05:39:42;;;;;;;51.40;26.10;;;;;;;-0.93;100.00;102313.05;4918601;56;1143096;-70
2023/02/15 05:44:48;;;;;;;54.53;27.63;;;;;;;-0.90;100.00;102311.71;4980346;56;1143212;-69
2023/02/15 05:49:54;;;;;;;55.47;29.07;;;;;;;-0.87;100.00;102309.55;4936323;57;1143072;-68
2023/02/15 05:55:00;;;;;;;69.10;32.47;;;;;;;-0.86;100.00;102306.08;4927323;56;1142846;-70
2023/02/15 06:00:09;;;;;;;100.23;45.03;;;;;;;-0.90;100.00;102303.05;4908497;56;1142877;-68
2023/02/15 06:05:18;;;;;;;97.10;46.03;;;;;;;-0.99;100.00;102296.16;4907743;57;1145366;-68
2023/02/15 06:10:24;;;;;;;107.33;45.30;;;;;;;-0.97;100.00;102295.73;5006684;57;1143075;-66
2023/02/15 06:15:30;;;;;;;80.40;37.38;;;;;;;-0.97;100.00;102293.56;4987239;57;1145077;-66
2023/02/15 06:20:36;;;;;;;82.53;38.67;;;;;;;-0.91;100.00;102297.42;4996482;57;1142899;-67
2023/02/15 06:25:41;;;;;;;80.27;37.77;;;;;;;-0.87;100.00;102304.35;4994761;57;1142944;-67
2023/02/15 06:30:48;;;;;;;87.07;38.30;;;;;;;-0.91;100.00;102304.78;4973100;57;1142845;-67
2023/02/15 06:35:54;;;;;;;71.57;32.03;;;;;;;-0.90;100.00;102302.62;4986405;57;1142787;-70
2023/02/15 06:40:59;;;;;;;77.87;36.37;;;;;;;-0.93;100.00;102302.66;5000819;57;1142878;-70
2023/02/15 06:46:05;;;;;;;102.27;39.27;;;;;;;-0.97;100.00;102296.16;4989779;57;1143141;-69
2023/02/15 06:51:11;;;;;;;143.00;46.57;;;;;;;-0.99;100.00;102284.91;4973464;57;1145040;-70
2023/02/15 06:56:17;;;;;;;122.15;48.65;;;;;;;-0.98;100.00;102286.64;5014153;57;1145006;-68
2023/02/15 07:01:22;;;;;;;116.53;46.33;;;;;;;-0.91;100.00;102284.01;4995623;57;1146057;-71
2023/02/15 07:06:33;;;;;;;118.07;50.27;;;;;;;-0.72;100.00;102273.14;4979198;57;1144952;-70
2023/02/15 07:17:01;;;;;;;;;;;;;;;-0.26;100.00;102267.75;4993359;57;1145011;-72
2023/02/15 07:22:07;;;;;;;100.70;46.73;;;;;;;0.00;100.00;102272.41;4989405;57;982948;-69
2023/02/15 07:27:13;;;;;;;97.40;50.43;;;;;;;0.28;100.00;102279.15;4968382;56;1140953;-69
2023/02/15 07:32:19;;;;;;;108.32;48.70;;;;;;;0.60;100.00;102274.13;4995879;57;1140828;-74
2023/02/15 07:37:25;;;;;;;91.53;46.67;;;;;;;0.94;100.00;102261.20;4953169;56;1142939;-72
2023/02/15 07:42:32;;;;;;;72.27;39.63;;;;;;;1.27;100.00;102252.16;5000754;57;1140767;-72
2023/02/15 07:47:38;;;;;;;74.63;39.20;;;;;;;1.55;100.00;102251.83;4994334;56;1141039;-72
2023/02/15 07:52:44;;;;;;;69.90;38.03;;;;;;;1.78;100.00;102235.45;5029217;56;1141132;-74
2023/02/15 07:57:53;;;;;;;64.13;35.47;;;;;;;2.00;100.00;102241.20;4996139;56;1141088;-72
2023/02/15 08:03:21;;;;;;;73.23;37.83;;;;;;;2.23;100.00;102235.65;4982014;56;1140994;-74
2023/02/15 08:08:06;;;;;;;76.53;39.73;;;;;;;2.47;100.00;102220.44;5030073;56;1140761;-72
2023/02/15 08:13:12;;;;;;;93.82;49.23;;;;;;;2.71;100.00;102211.77;5022725;56;1140945;-73
2023/02/15 08:18:18;;;;;;;60.45;34.13;;;;;;;2.91;100.00;102204.41;4980065;56;1141099;-68
2023/02/15 08:23:24;;;;;;;65.43;34.20;;;;;;;3.15;100.00;102203.95;4992440;56;1141183;-73
2023/02/15 08:28:30;;;;;;;62.10;32.53;;;;;;;3.36;100.00;102196.56;4991960;56;1140842;-74
2023/02/15 08:33:37;;;;;;;66.75;34.67;;;;;;;3.47;100.00;102192.83;4982492;56;1140836;-74
2023/02/15 08:38:44;;;;;;;62.83;33.93;;;;;;;3.52;100.00;102183.55;4998987;56;1140966;-71
2023/02/15 08:43:54;;;;;;;68.30;35.50;;;;;;;3.60;100.00;102187.31;5007570;56;1141181;-72
2023/02/15 08:49:00;;;;;;;90.93;52.47;;;;;;;3.70;100.00;102177.91;5033210;56;1140864;-70
2023/02/15 08:54:10;;;;;;;61.13;35.07;;;;;;;3.85;100.00;102171.46;5010116;56;1140863;-70
2023/02/15 08:59:20;;;;;;;65.80;33.06;;;;;;;3.85;100.00;102171.46;4768055;57;1140920;-68
2023/02/15 09:04:26;;;;;;;52.37;28.70;;;;;;;3.96;100.00;102159.45;4973658;56;1140902;-68
2023/02/15 09:09:32;;;;;;;60.23;30.53;;;;;;;4.13;100.00;102158.12;5015917;56;1143307;-71
2023/02/15 09:14:38;;;;;;;52.43;28.57;;;;;;;4.29;100.00;102166.45;5032153;56;1141120;-70
2023/02/15 09:19:44;;;;;;;54.33;30.47;;;;;;;4.40;100.00;102163.58;4980186;56;1141010;-68
2023/02/15 09:24:50;;;;;;;54.70;27.37;;;;;;;4.45;100.00;102164.30;4966454;56;1141054;-70
2023/02/15 09:29:56;;;;;;;44.47;25.20;;;;;;;4.56;100.00;102151.36;5011262;56;1140869;-69
2023/02/15 09:35:04;;;;;;;51.77;30.40;;;;;;;4.77;100.00;102143.80;4962145;56;1143055;-70
2023/02/15 09:40:13;;;;;;;37.77;20.47;;;;;;;4.87;100.00;102140.03;4986127;56;1140938;-68
2023/02/15 09:45:35;;;;;;;42.95;26.17;;;;;;;4.78;100.00;102129.34;4997372;56;1141003;-67
2023/02/15 09:51:03;;;;;;;46.00;24.53;;;;;;;4.79;100.00;102119.71;5007541;56;1141103;-68
2023/02/15 09:56:16;;;;;;;63.87;26.50;;;;;;;4.89;100.00;102113.30;4958664;57;1140809;-67
2023/02/15 10:01:35;;;;;;;58.07;30.40;;;;;;;4.77;100.00;102105.34;5005250;57;1140852;-70
2023/02/15 10:06:46;;;;;;;54.23;29.00;;;;;;;4.74;100.00;102099.31;4938075;57;1140776;-68
2023/02/15 10:12:11;;;;;;;51.70;27.13;;;;;;;4.82;100.00;102088.17;4958816;57;1140805;-70
2023/02/15 10:17:47;;;;;;;50.30;28.42;;;;;;;4.92;100.00;102087.86;4982481;57;1142982;-69
2023/02/15 10:23:06;;;;;;;54.73;30.30;;;;;;;4.98;100.00;102089.91;4958800;57;1140802;-70
2023/02/15 10:28:22;;;;;;;64.67;32.45;;;;;;;4.93;100.00;102084.34;4983402;57;1140871;-70
2023/02/15 10:33:43;;;;;;;54.47;30.73;;;;;;;4.87;100.00;102081.05;4997478;57;1140769;-68
2023/02/15 10:39:09;;;;;;;49.13;27.87;;;;;;;4.98;100.00;102084.66;4981531;57;1140842;-68
2023/02/15 10:44:34;;;;;;;56.27;31.87;;;;;;;5.06;100.00;102074.34;4986614;57;1142899;-68
2023/02/15 10:50:02;;;;;;;64.77;34.93;;;;;;;5.11;100.00;102065.03;4973029;57;1141859;-69
2023/02/15 10:55:27;;;;;;;51.92;29.95;;;;;;;5.12;100.00;102064.13;5001177;56;1140932;-69
2023/02/15 11:01:05;;;;;;;60.30;33.03;;;;;;;5.17;100.00;102051.75;4974602;56;1140911;-72
2023/02/15 11:06:16;;;;;;;58.10;32.20;;;;;;;5.18;100.00;102040.35;4956570;56;1140776;-67
2023/02/15 11:11:35;;;;;;;49.05;27.90;;;;;;;5.16;100.00;102043.02;4944076;58;1141106;-68
2023/02/15 11:16:46;;;;;;;66.07;34.83;;;;;;;5.18;100.00;102037.28;4880238;59;1140842;-70
2023/02/15 11:21:55;;;;;;;61.97;35.63;;;;;;;5.22;100.00;102025.76;4880683;59;1140888;-68
2023/02/15 11:27:26;;;;;;;61.57;32.60;;;;;;;5.27;100.00;102021.69;4946552;58;1140732;-67
2023/02/15 11:32:44;;;;;;;56.05;33.20;;;;;;;5.27;100.00;102021.69;4910908;56;1140766;-70
2023/02/15 11:38:22;;;;;;;64.47;35.53;;;;;;;5.38;100.00;102018.72;5022087;56;1140860;-69
2023/02/15 11:43:53;;;;;;;66.47;33.90;;;;;;;5.51;100.00;102017.41;4954838;58;1140991;-71
2023/02/15 11:49:00;;;;;;;68.83;37.27;;;;;;;5.69;100.00;102008.07;4936617;57;1140974;-71
2023/02/15 11:54:06;;;;;;;57.43;32.07;;;;;;;5.85;100.00;101997.00;4964426;57;1140939;-67
2023/02/15 11:59:16;;;;;;;71.53;39.03;;;;;;;6.00;100.00;101993.02;4995453;57;1141106;-70
2023/02/15 12:04:39;;;;;;;56.68;30.97;;;;;;;6.09;100.00;101995.80;4955152;57;1140766;-69
2023/02/15 12:10:11;;;;;;;68.60;39.73;;;;;;;6.23;100.00;101986.51;4988442;57;1140897;-70
2023/02/15 12:15:15;;;;;;;74.37;41.27;;;;;;;6.33;100.00;101983.94;4988402;56;1141008;-67
2023/02/15 12:20:28;;;;;;;84.97;46.83;;;;;;;6.46;100.00;101984.79;5008286;57;1141016;-70
2023/02/15 12:25:55;;;;;;;65.67;37.67;;;;;;;6.50;100.00;101982.45;4933790;57;1140944;-69
2023/02/15 12:31:21;;;;;;;62.70;36.53;;;;;;;6.58;100.00;101969.41;4976674;56;1143156;-69
2023/02/15 12:36:33;;;;;;;75.67;39.55;;;;;;;6.62;100.00;101959.64;4978427;57;1140891;-66
2023/02/15 12:41:41;;;;;;;70.53;40.10;;;;;;;6.69;100.00;101950.62;4942008;57;1140940;-71
2023/02/15 12:47:12;;;;;;;75.20;42.85;;;;;;;6.75;100.00;101949.52;4988535;57;1141046;-71
2023/02/15 12:52:25;;;;;;;62.45;38.63;;;;;;;6.87;100.00;101938.53;5007813;56;1141056;-68
2023/02/15 12:57:34;;;;;;;58.27;35.77;;;;;;;6.80;100.00;101935.73;4984673;57;1140799;-71
2023/02/15 13:02:47;;;;;;;496.80;154.70;;;;;;;6.92;100.00;101932.61;4962237;57;1140811;-68
2023/02/15 13:08:00;;;;;;;163.53;54.93;;;;;;;7.05;100.00;101919.36;4982867;57;1147247;-69
2023/02/15 13:13:10;;;;;;;;;;;;;;;7.16;100.00;101913.23;4968350;58;1143090;-70
2023/02/15 13:18:38;;;;;;;67.40;39.80;;;;;;;7.25;100.00;101916.78;4983570;57;974017;-69
2023/02/15 13:23:49;;;;;;;123.70;52.70;;;;;;;7.34;100.00;101908.48;4961182;58;1139076;-70
2023/02/15 13:28:59;;;;;;;98.77;45.40;;;;;;;7.53;100.00;101905.08;4978663;57;1143141;-70
2023/02/15 13:34:36;;;;;;;84.53;42.90;;;;;;;7.75;100.00;101900.62;4965066;57;1141205;-72
2023/02/15 13:39:58;;;;;;;81.63;41.67;;;;;;;7.83;100.00;101897.17;4963471;57;1142895;-68
2023/02/15 13:45:44;;;;;;;64.92;40.60;;;;;;;8.00;100.00;101897.73;4884537;58;1142977;-69
2023/02/15 13:51:03;;;;;;;65.73;37.27;;;;;;;8.23;100.00;101887.48;4877718;57;1140910;-68
2023/02/15 13:56:28;;;;;;;65.90;39.57;;;;;;;8.33;100.00;101883.06;4943646;56;1142802;-65
2023/02/15 14:01:44;;;;;;;77.03;42.50;;;;;;;8.50;100.00;101867.77;4962289;57;1142994;-67
2023/02/15 14:07:20;;;;;;;69.50;42.23;;;;;;;8.69;100.00;101862.02;4969498;57;1143212;-67
2023/02/15 14:12:36;;;;;;;70.40;41.05;;;;;;;8.86;100.00;101865.13;4988156;57;1143146;-68
2023/02/15 14:18:17;;;;;;;71.87;42.67;;;;;;;9.08;100.00;101859.19;4964094;57;1142888;-67
2023/02/15 14:23:50;;;;;;;85.22;49.18;;;;;;;9.24;100.00;101867.19;4961220;57;1142907;-69
2023/02/15 14:29:16;;;;;;;79.77;47.63;;;;;;;9.23;100.00;101867.27;4970003;54;1142960;-71
2023/02/15 14:34:33;;;;;;;90.93;48.73;;;;;;;9.16;100.00;101859.67;4978166;57;1142979;-70
2023/02/15 14:45:29;;;;;;;76.80;47.90;;;;;;;8.50;100.00;101861.18;4973839;57;1140885;-68
2023/02/15 14:50:41;;;;;;;74.70;46.30;;;;;;;8.03;100.00;101861.58;4836325;59;1141164;-67
2023/02/15 14:55:48;;;;;;;99.80;59.70;;;;;;;7.88;100.00;101858.32;4855020;59;1140877;-69
2023/02/15 15:00:59;;;;;;;103.10;59.30;;;;;;;8.19;100.00;101841.11;4796045;59;1140834;-68
2023/02/15 15:06:06;;;;;;;96.77;56.33;;;;;;;8.19;100.00;101834.06;4748669;60;1142923;-70
2023/02/15 15:11:39;;;;;;;76.12;42.50;;;;;;;7.92;100.00;101830.92;4755458;59;1143037;-68
2023/02/15 15:16:50;;;;;;;83.20;46.43;;;;;;;7.78;100.00;101824.11;4617491;60;1143057;-71
2023/02/15 15:21:58;;;;;;;80.53;46.70;;;;;;;7.65;100.00;101814.56;4555996;62;1142959;-71
2023/02/15 15:27:45;;;;;;;85.73;48.60;;;;;;;7.83;100.00;101808.94;4545654;62;1143151;-69
2023/02/15 15:32:59;;;;;;;87.83;52.73;;;;;;;7.83;100.00;101804.98;4552146;62;1141049;-68
2023/02/15 15:38:23;;;;;;;;;;;;;;;7.51;100.00;101811.70;4741826;59;1140780;-69
2023/02/15 15:43:55;;;;;;;181.47;88.17;;;;;;;7.21;100.00;101809.08;4739041;60;974005;-69
2023/02/15 15:49:14;;;;;;;114.10;62.37;;;;;;;6.97;100.00;101807.91;4702183;60;1141078;-70
2023/02/15 15:54:23;;;;;;;103.97;57.53;;;;;;;6.81;100.00;101798.94;4892925;57;1145027;-70
2023/02/15 15:59:32;;;;;;;118.47;70.32;;;;;;;6.66;100.00;101792.55;4996200;57;1145170;-68
2023/02/15 16:04:38;;;;;;;109.03;58.30;;;;;;;6.49;100.00;101779.69;5016992;57;1142944;-70
2023/02/15 16:10:02;;;;;;;112.37;59.93;;;;;;;6.34;100.00;101782.02;5038510;56;1142971;-69
2023/02/15 16:15:21;;;;;;;114.80;57.30;;;;;;;6.19;100.00;101781.31;4998755;56;1142946;-66
2023/02/15 16:20:35;;;;;;;91.97;51.10;;;;;;;6.09;100.00;101765.98;5040678;56;1142858;-70
2023/02/15 16:25:57;;;;;;;93.57;53.60;;;;;;;5.99;100.00;101762.84;5066714;57;1142817;-69
2023/02/15 16:31:15;;;;;;;105.77;59.40;;;;;;;5.89;100.00;101757.55;5000095;56;1142863;-67
2023/02/15 16:36:27;;;;;;;109.17;58.42;;;;;;;5.83;100.00;101753.34;5047718;55;1143053;-69
2023/02/15 16:41:34;;;;;;;124.35;68.40;;;;;;;5.68;100.00;101746.05;4975256;57;1142965;-68
2023/02/15 16:46:44;;;;;;;107.57;57.93;;;;;;;5.55;100.00;101741.72;4985276;56;1142971;-71
2023/02/15 16:52:00;;;;;;;102.33;57.03;;;;;;;5.49;100.00;101741.97;4975695;57;1142816;-67
2023/02/15 16:57:07;;;;;;;105.43;60.57;;;;;;;5.46;100.00;101739.91;4954145;56;1145057;-68
2023/02/15 17:02:20;;;;;;;107.20;63.13;;;;;;;5.40;100.00;101746.23;4940656;56;1142870;-68
2023/02/15 17:07:27;;;;;;;151.35;73.85;;;;;;;5.37;100.00;101741.54;4937365;56;1142924;-69
2023/02/15 17:13:00;;;;;;;153.43;81.20;;;;;;;5.29;100.00;101737.90;4897767;57;1143089;-67
2023/02/15 17:18:20;;;;;;;108.63;61.33;;;;;;;5.24;100.00;101740.68;4944395;56;1143017;-67
2023/02/15 17:23:42;;;;;;;122.00;73.15;;;;;;;5.18;100.00;101739.61;4876164;57;1143123;-70
2023/02/15 17:29:11;;;;;;;113.95;64.03;;;;;;;5.24;100.00;101746.38;4945191;57;1145026;-68
2023/02/15 17:34:47;;;;;;;136.40;72.05;;;;;;;5.27;100.00;101741.88;5002939;56;1143002;-70
2023/02/15 17:39:53;;;;;;;182.13;81.80;;;;;;;5.29;100.00;101744.00;4995515;57;1142898;-69
2023/02/15 17:44:59;;;;;;;156.57;79.23;;;;;;;5.24;100.00;101740.68;4914252;57;1143053;-67
2023/02/15 17:50:08;;;;;;;145.30;76.93;;;;;;;5.03;100.00;101732.28;4915010;57;1142900;-68
2023/02/15 17:55:42;;;;;;;103.30;56.67;;;;;;;5.03;100.00;101732.28;4930961;56;1142867;-71
2023/02/15 18:11:47;;;;;;;133.07;70.33;;;;;;;4.73;100.00;101723.72;4906809;57;1142892;-69
2023/02/15 18:16:50;;;;;;;169.47;88.60;;;;;;;4.60;100.00;101714.08;4955914;57;1142912;-69
2023/02/15 18:21:56;;;;;;;215.57;105.80;;;;;;;4.47;100.00;101708.00;4915926;57;1143188;-70
2023/02/15 18:27:03;;;;;;;280.10;137.00;;;;;;;4.37;100.00;101707.46;4937901;57;1145100;-69
2023/02/15 18:32:19;;;;;;;167.10;84.53;;;;;;;4.31;100.00;101703.72;4957337;56;1147187;-69
2023/02/15 18:37:30;;;;;;;148.05;75.67;;;;;;;4.24;100.00;101705.70;4994523;57;1142994;-69
2023/02/15 18:42:36;;;;;;;149.10;76.90;;;;;;;4.26;100.00;101704.80;4981180;56;1142972;-69
2023/02/15 18:47:43;;;;;;;160.03;81.37;;;;;;;4.24;100.00;101714.86;5046163;56;1143176;-70
2023/02/15 18:52:50;;;;;;;148.37;71.07;;;;;;;4.26;100.00;101706.97;5101395;56;1143055;-67
2023/02/15 18:57:58;;;;;;;156.83;74.93;;;;;;;4.24;100.00;101704.84;4967682;55;1143103;-71
2023/02/15 19:03:05;;;;;;;170.10;79.43;;;;;;;4.17;100.00;101696.77;4904191;57;1145038;-69
2023/02/15 19:08:23;;;;;;;177.93;87.40;;;;;;;4.02;100.00;101696.80;5026946;56;1142877;-67
2023/02/15 19:13:29;;;;;;;192.80;89.97;;;;;;;3.94;100.00;101684.87;5010335;57;1143188;-68
2023/02/15 19:18:35;;;;;;;220.37;106.22;;;;;;;3.84;100.00;101679.91;5053636;57;1143062;-69
2023/02/15 19:23:40;;;;;;;304.68;127.82;;;;;;;3.73;100.00;101671.55;5053314;56;1145032;-66
2023/02/15 19:28:47;;;;;;;389.77;157.83;;;;;;;3.64;100.00;101669.23;5051749;56;1145061;-65
2023/02/15 19:33:53;;;;;;;375.13;142.83;;;;;;;3.63;100.00;101664.90;4987473;57;1145172;-68
2023/02/15 19:38:58;;;;;;;465.97;186.63;;;;;;;3.60;100.00;101664.13;4984737;57;1145008;-69
2023/02/15 19:44:05;;;;;;;504.38;202.82;;;;;;;3.57;100.00;101651.14;5002749;57;1145019;-66
2023/02/15 19:49:12;;;;;;;367.47;139.77;;;;;;;3.48;100.00;101649.67;5049503;57;1144910;-69
2023/02/15 19:54:36;;;;;;;314.77;121.43;;;;;;;3.28;100.00;101658.55;5025653;56;1144951;-69
2023/02/15 19:59:43;;;;;;;372.17;141.20;;;;;;;3.12;100.00;101651.16;4957787;56;1145103;-66
2023/02/15 20:04:48;;;;;;;256.40;116.40;;;;;;;3.04;100.00;101648.36;4988817;55;1145180;-67
2023/02/15 20:09:54;;;;;;;374.27;150.63;;;;;;;3.02;100.00;101635.34;4963658;56;1145317;-68
2023/02/15 20:15:00;;;;;;;328.23;140.20;;;;;;;2.94;100.00;101633.83;4784872;57;1145191;-68
2023/02/15 20:20:07;;;;;;;251.83;109.90;;;;;;;2.82;100.00;101625.89;4796774;59;1145302;-67
2023/02/15 20:25:23;;;;;;;221.47;103.30;;;;;;;2.76;100.00;101611.67;4777917;59;1145076;-70
2023/02/15 20:30:32;;;;;;;248.73;113.40;;;;;;;2.74;100.00;101609.14;4767281;59;1145063;-70
2023/02/15 20:35:39;;;;;;;217.50;100.53;;;;;;;2.62;100.00;101609.45;4760478;59;1145144;-69
2023/02/15 20:41:34;;;;;;;216.77;95.73;;;;;;;2.67;100.00;101608.03;4793344;58;1145100;-68
2023/02/15 20:45:52;;;;;;;180.57;82.80;;;;;;;2.57;100.00;101605.27;4889449;57;1142996;-67
2023/02/15 20:50:58;;;;;;;194.93;87.73;;;;;;;2.42;100.00;101593.04;4904061;58;1143004;-69
2023/02/15 20:56:04;;;;;;;175.10;87.10;;;;;;;2.30;100.00;101585.51;4851054;58;1143321;-69
2023/02/15 21:01:12;;;;;;;213.17;98.83;;;;;;;2.29;100.00;101580.36;4739831;61;1142976;-68
2023/02/15 21:06:18;;;;;;;232.47;123.30;;;;;;;2.26;100.00;101581.73;4772095;59;1143188;-70
2023/02/15 21:11:24;;;;;;;198.75;104.27;;;;;;;2.21;100.00;101580.55;4815391;57;1148180;-68
2023/02/15 21:16:31;;;;;;;216.27;112.60;;;;;;;2.19;100.00;101567.98;4861160;58;1145158;-69
2023/02/15 21:21:37;;;;;;;220.20;112.20;;;;;;;2.12;100.00;101566.44;4887753;57;1144949;-66
2023/02/15 21:26:50;;;;;;;217.53;107.60;;;;;;;2.06;100.00;101554.40;4887007;57;1144899;-70
2023/02/15 21:31:57;;;;;;;280.87;109.80;;;;;;;2.03;100.00;101542.73;4908339;57;1145117;-70
2023/02/15 21:37:02;;;;;;;288.13;109.63;;;;;;;1.91;100.00;101543.05;4884292;57;1145072;-69
2023/02/15 21:47:52;;;;;;;179.12;77.95;;;;;;;1.74;100.00;101535.66;4883042;58;1143062;-67
2023/02/15 21:52:58;;;;;;;146.00;65.40;;;;;;;1.61;100.00;101541.20;4901514;58;1143032;-67
2023/02/15 21:58:05;;;;;;;133.17;62.30;;;;;;;1.66;100.00;101538.05;4882924;58;1143135;-69
2023/02/15 22:03:12;;;;;;;163.30;70.37;;;;;;;1.62;100.00;101543.78;4884817;57;1143170;-68
2023/02/15 22:08:18;;;;;;;156.30;70.17;;;;;;;1.61;100.00;101544.67;4906551;57;1142916;-68
2023/02/15 22:13:33;;;;;;;155.60;68.55;;;;;;;1.62;100.00;101538.56;4884478;58;1142975;-68
2023/02/15 22:18:39;;;;;;;158.77;72.97;;;;;;;1.66;100.00;101537.61;4870931;59;1143220;-70
2023/02/15 22:23:45;;;;;;;155.78;71.15;;;;;;;1.66;100.00;101536.75;4871580;59;1143074;-67
2023/02/15 22:28:52;;;;;;;147.87;71.40;;;;;;;1.61;100.00;101529.48;4891119;59;1143238;-67
2023/02/15 22:33:57;;;;;;;149.43;71.73;;;;;;;1.53;100.00;101530.95;4874514;59;1143172;-69
2023/02/15 22:39:03;;;;;;;153.47;71.90;;;;;;;1.49;100.00;101525.42;4874879;59;1142928;-69
2023/02/15 22:44:15;;;;;;;194.43;89.72;;;;;;;1.47;100.00;101525.91;4875753;59;1143011;-66
2023/02/15 22:49:21;;;;;;;168.62;76.28;;;;;;;1.44;100.00;101527.27;4798374;59;1143198;-69
2023/02/15 22:54:27;;;;;;;155.47;70.63;;;;;;;1.40;100.00;101524.32;4812567;58;1143140;-67
2023/02/15 22:59:33;;;;;;;167.63;72.00;;;;;;;1.27;100.00;101526.81;4825187;59;1143073;-67
2023/02/15 23:04:39;;;;;;;156.87;69.92;;;;;;;1.24;100.00;101530.78;4894063;59;1143207;-66
2023/02/15 23:09:45;;;;;;;141.30;67.30;;;;;;;1.19;100.00;101525.70;4874921;58;1142925;-66
2023/02/15 23:14:51;;;;;;;139.65;68.35;;;;;;;1.13;100.00;101526.27;4874512;59;1143130;-69
2023/02/15 23:19:57;;;;;;;167.00;79.80;;;;;;;1.12;100.00;101524.55;4997438;57;1142926;-70
2023/02/15 23:25:04;;;;;;;183.60;82.37;;;;;;;1.09;100.00;101522.87;4995963;57;1142953;-70
2023/02/15 23:30:15;;;;;;;157.57;75.67;;;;;;;1.04;100.00;101526.05;4993256;57;1142916;-69
2023/02/15 23:35:21;;;;;;;237.57;100.50;;;;;;;1.02;100.00;101515.66;5009437;58;1195002;-69
2023/02/15 23:45:50;;;;;;;164.55;68.55;;;;;;;1.01;100.00;101503.52;4962129;57;1142975;-69